EDW632M LEMH-LSZH
Flight info
| Callsign | EDW632M |
|---|---|
| Flight time | 1h 19m |
| Altitude | 34000 |
| Route | MEROS N853 LUMAS DCT NEVIX DCT MAXIR DCT LUSOL DCT BODRU/N0401F320 DCT OKTET DCT IRMAR DCT KINES DCT VANAS DCT MOBLO DCT LAMUR DCT GUDAX Z57 DOPIL |
| Aircraft | A320/M-SDE3FGHIRWY/LB1 |
Departure
| Time | 2026-05-05 16:34 |
|---|---|
| Airport | Menorca Airport (LEMH) |
Arrival
| Time | 2026-05-05 17:53 |
|---|---|
| Airport | Zürich Airport (LSZH) |
| Time | Latitude | Longitude | Altitude | Speed | Heading |
|---|---|---|---|---|---|
| 2026-05-05 15:50 | 39.86529 | 4.22431 | 287 ft | 0 kts | 99° |
| 2026-05-05 16:23 | 39.86532 | 4.22397 | 287 ft | 4 kts | 92° |
| 2026-05-05 16:24 | 39.86531 | 4.22362 | 287 ft | 4 kts | 77° |
| 2026-05-05 16:24 | 39.86522 | 4.22333 | 290 ft | 4 kts | 35° |
| 2026-05-05 16:24 | 39.86509 | 4.22325 | 288 ft | 0 kts | 9° |
| 2026-05-05 16:25 | 39.86509 | 4.22326 | 288 ft | 0 kts | 9° |
| 2026-05-05 16:27 | 39.86543 | 4.22333 | 294 ft | 10 kts | 9° |
| 2026-05-05 16:27 | 39.86635 | 4.22352 | 292 ft | 14 kts | 8° |
| 2026-05-05 16:28 | 39.86722 | 4.22370 | 291 ft | 12 kts | 9° |
| 2026-05-05 16:28 | 39.86808 | 4.22388 | 295 ft | 14 kts | 9° |
| 2026-05-05 16:28 | 39.86900 | 4.22392 | 298 ft | 12 kts | 332° |
| 2026-05-05 16:28 | 39.86922 | 4.22306 | 299 ft | 11 kts | 278° |
| 2026-05-05 16:29 | 39.86993 | 4.22254 | 302 ft | 18 kts | 11° |
| 2026-05-05 16:29 | 39.87126 | 4.22281 | 305 ft | 18 kts | 9° |
| 2026-05-05 16:29 | 39.87237 | 4.22304 | 310 ft | 13 kts | 8° |
| 2026-05-05 16:29 | 39.87272 | 4.22312 | 310 ft | 0 kts | 9° |
| 2026-05-05 16:32 | 39.87273 | 4.22312 | 310 ft | 1 kts | 9° |
| 2026-05-05 16:32 | 39.87297 | 4.22317 | 310 ft | 5 kts | 9° |
| 2026-05-05 16:33 | 39.87345 | 4.22327 | 312 ft | 8 kts | 9° |
| 2026-05-05 16:33 | 39.87390 | 4.22269 | 312 ft | 15 kts | 288° |
| 2026-05-05 16:33 | 39.87366 | 4.22118 | 310 ft | 15 kts | 237° |
| 2026-05-05 16:33 | 39.87261 | 4.22069 | 310 ft | 20 kts | 188° |
| 2026-05-05 16:34 | 39.86965 | 4.22009 | 303 ft | 78 kts | 189° |
| 2026-05-05 16:34 | 39.86201 | 4.21851 | 304 ft | 139 kts | 189° |
| 2026-05-05 16:34 | 39.85205 | 4.21643 | 852 ft | 145 kts | 192° |
| 2026-05-05 16:34 | 39.84208 | 4.21427 | 1588 ft | 148 kts | 192° |
| 2026-05-05 16:35 | 39.83099 | 4.21199 | 1983 ft | 173 kts | 192° |
| 2026-05-05 16:35 | 39.81849 | 4.20942 | 2448 ft | 192 kts | 192° |
| 2026-05-05 16:35 | 39.80432 | 4.20633 | 2861 ft | 218 kts | 192° |
| 2026-05-05 16:35 | 39.78864 | 4.20289 | 3431 ft | 239 kts | 191° |
| 2026-05-05 16:36 | 39.77155 | 4.19931 | 4059 ft | 259 kts | 189° |
| 2026-05-05 16:36 | 39.75353 | 4.20264 | 5001 ft | 271 kts | 157° |
| 2026-05-05 16:36 | 39.74341 | 4.21234 | 5630 ft | 279 kts | 134° |
| 2026-05-05 16:36 | 39.73447 | 4.23502 | 6570 ft | 289 kts | 107° |
| 2026-05-05 16:37 | 39.73230 | 4.26123 | 7428 ft | 298 kts | 86° |
| 2026-05-05 16:37 | 39.74250 | 4.29446 | 8542 ft | 308 kts | 49° |
| 2026-05-05 16:37 | 39.75956 | 4.31110 | 9389 ft | 310 kts | 19° |
| 2026-05-05 16:37 | 39.77354 | 4.31599 | 9933 ft | 308 kts | 2° |
| 2026-05-05 16:38 | 39.79532 | 4.31715 | 10415 ft | 325 kts | 357° |
| 2026-05-05 16:38 | 39.81863 | 4.31820 | 10839 ft | 343 kts | 359° |
| 2026-05-05 16:38 | 39.84244 | 4.31971 | 11528 ft | 350 kts | 359° |
| 2026-05-05 16:38 | 39.86698 | 4.32151 | 12298 ft | 356 kts | 359° |
| 2026-05-05 16:39 | 39.89186 | 4.32344 | 13070 ft | 361 kts | 359° |
| 2026-05-05 16:39 | 39.91709 | 4.32541 | 13820 ft | 366 kts | 359° |
| 2026-05-05 16:39 | 39.94263 | 4.32736 | 14509 ft | 370 kts | 359° |
| 2026-05-05 16:39 | 39.96845 | 4.32925 | 15208 ft | 374 kts | 359° |
| 2026-05-05 16:40 | 39.99457 | 4.33107 | 15897 ft | 378 kts | 358° |
| 2026-05-05 16:40 | 40.02089 | 4.33285 | 16592 ft | 381 kts | 358° |
| 2026-05-05 16:40 | 40.04756 | 4.33466 | 17287 ft | 385 kts | 358° |
| 2026-05-05 16:40 | 40.07435 | 4.33652 | 17978 ft | 388 kts | 358° |
| 2026-05-05 16:41 | 40.10116 | 4.33838 | 18579 ft | 391 kts | 358° |
| 2026-05-05 16:41 | 40.12850 | 4.34028 | 19153 ft | 395 kts | 358° |
| 2026-05-05 16:41 | 40.15605 | 4.34217 | 19726 ft | 399 kts | 357° |
| 2026-05-05 16:41 | 40.18392 | 4.34410 | 20296 ft | 403 kts | 357° |
| 2026-05-05 16:42 | 40.21213 | 4.34608 | 20862 ft | 407 kts | 357° |
| 2026-05-05 16:42 | 40.24056 | 4.34809 | 21425 ft | 412 kts | 356° |
| 2026-05-05 16:42 | 40.26930 | 4.35013 | 21985 ft | 416 kts | 356° |
| 2026-05-05 16:42 | 40.29832 | 4.35219 | 22550 ft | 420 kts | 356° |
| 2026-05-05 16:43 | 40.32760 | 4.35425 | 23104 ft | 424 kts | 356° |
| 2026-05-05 16:43 | 40.35715 | 4.35631 | 23621 ft | 428 kts | 356° |
| 2026-05-05 16:43 | 40.38703 | 4.35840 | 24069 ft | 431 kts | 356° |
| 2026-05-05 16:43 | 40.41714 | 4.36056 | 24530 ft | 435 kts | 356° |
| 2026-05-05 16:44 | 40.44753 | 4.36275 | 24949 ft | 439 kts | 356° |
| 2026-05-05 16:44 | 40.47818 | 4.36496 | 25368 ft | 443 kts | 356° |
| 2026-05-05 16:44 | 40.50911 | 4.36864 | 25780 ft | 452 kts | 3° |
| 2026-05-05 16:44 | 40.53978 | 4.37585 | 26174 ft | 457 kts | 4° |
| 2026-05-05 16:45 | 40.57115 | 4.38336 | 26563 ft | 460 kts | 4° |
| 2026-05-05 16:45 | 40.60276 | 4.39097 | 26950 ft | 464 kts | 4° |
| 2026-05-05 16:45 | 40.63461 | 4.39862 | 27328 ft | 467 kts | 4° |
| 2026-05-05 16:45 | 40.66670 | 4.40630 | 27702 ft | 470 kts | 4° |
| 2026-05-05 16:46 | 40.69901 | 4.41401 | 28073 ft | 474 kts | 4° |
| 2026-05-05 16:46 | 40.73155 | 4.42183 | 28435 ft | 477 kts | 4° |
| 2026-05-05 16:46 | 40.76431 | 4.42971 | 28794 ft | 480 kts | 4° |
| 2026-05-05 16:46 | 40.79729 | 4.43766 | 29143 ft | 483 kts | 4° |
| 2026-05-05 16:47 | 40.83047 | 4.44568 | 29508 ft | 487 kts | 4° |
| 2026-05-05 16:47 | 40.86391 | 4.45377 | 29812 ft | 491 kts | 4° |
| 2026-05-05 16:47 | 40.89761 | 4.46191 | 30102 ft | 494 kts | 4° |
| 2026-05-05 16:47 | 40.93150 | 4.47007 | 30387 ft | 496 kts | 4° |
| 2026-05-05 16:48 | 40.96510 | 4.47819 | 30673 ft | 498 kts | 4° |
| 2026-05-05 16:48 | 40.99929 | 4.48649 | 30954 ft | 501 kts | 4° |
| 2026-05-05 16:48 | 41.03362 | 4.49485 | 31229 ft | 503 kts | 4° |
| 2026-05-05 16:48 | 41.06803 | 4.50324 | 31506 ft | 505 kts | 4° |
| 2026-05-05 16:49 | 41.10272 | 4.51168 | 31831 ft | 506 kts | 4° |
| 2026-05-05 16:49 | 41.13723 | 4.52010 | 32200 ft | 505 kts | 4° |
| 2026-05-05 16:49 | 41.17180 | 4.52855 | 32573 ft | 504 kts | 4° |
| 2026-05-05 16:49 | 41.20631 | 4.53697 | 32947 ft | 504 kts | 3° |
| 2026-05-05 16:50 | 41.24076 | 4.54535 | 33323 ft | 503 kts | 3° |
| 2026-05-05 16:50 | 41.27510 | 4.55369 | 33718 ft | 503 kts | 3° |
| 2026-05-05 16:50 | 41.30954 | 4.56209 | 33870 ft | 502 kts | 4° |
| 2026-05-05 16:50 | 41.34343 | 4.57048 | 33895 ft | 490 kts | 4° |
| 2026-05-05 16:51 | 41.40947 | 4.58686 | 33894 ft | 484 kts | 3° |
| 2026-05-05 16:51 | 41.47560 | 4.60306 | 33926 ft | 483 kts | 3° |
| 2026-05-05 16:52 | 41.54174 | 4.61930 | 33894 ft | 484 kts | 4° |
| 2026-05-05 16:52 | 41.60846 | 4.63572 | 34048 ft | 492 kts | 4° |
| 2026-05-05 16:53 | 41.64215 | 4.64400 | 34325 ft | 493 kts | 4° |
| 2026-05-05 16:53 | 41.67542 | 4.65221 | 34663 ft | 492 kts | 4° |
| 2026-05-05 16:53 | 41.70904 | 4.66060 | 35042 ft | 491 kts | 5° |
| 2026-05-05 16:53 | 41.74217 | 4.67249 | 35384 ft | 497 kts | 14° |
| 2026-05-05 16:54 | 41.77426 | 4.69005 | 35731 ft | 498 kts | 18° |
| 2026-05-05 16:54 | 41.80611 | 4.70837 | 35881 ft | 497 kts | 18° |
| 2026-05-05 16:54 | 41.86955 | 4.74499 | 35892 ft | 496 kts | 18° |
| 2026-05-05 16:55 | 41.93247 | 4.78132 | 35891 ft | 495 kts | 18° |
| 2026-05-05 16:55 | 41.99572 | 4.81783 | 35895 ft | 495 kts | 18° |
| 2026-05-05 16:56 | 42.05902 | 4.85450 | 35896 ft | 495 kts | 18° |
| 2026-05-05 16:56 | 42.12233 | 4.89119 | 35929 ft | 495 kts | 18° |
| 2026-05-05 16:57 | 42.18565 | 4.92797 | 35905 ft | 496 kts | 18° |
| 2026-05-05 16:57 | 42.24901 | 4.96489 | 35865 ft | 496 kts | 18° |
| 2026-05-05 16:58 | 42.31197 | 5.00163 | 35898 ft | 496 kts | 18° |
| 2026-05-05 16:58 | 42.37530 | 5.03878 | 35898 ft | 496 kts | 19° |
| 2026-05-05 16:59 | 42.43633 | 5.08324 | 35896 ft | 503 kts | 33° |
| 2026-05-05 16:59 | 42.49267 | 5.13851 | 35895 ft | 503 kts | 33° |
| 2026-05-05 17:00 | 42.54935 | 5.19412 | 35918 ft | 504 kts | 33° |
| 2026-05-05 17:00 | 42.60610 | 5.24990 | 35909 ft | 504 kts | 33° |
| 2026-05-05 17:01 | 42.66278 | 5.30579 | 35908 ft | 504 kts | 33° |
| 2026-05-05 17:01 | 42.71946 | 5.36182 | 35875 ft | 504 kts | 33° |
| 2026-05-05 17:02 | 42.77571 | 5.41756 | 35890 ft | 503 kts | 33° |
| 2026-05-05 17:02 | 42.83230 | 5.47382 | 35897 ft | 503 kts | 33° |
| 2026-05-05 17:03 | 42.88886 | 5.53016 | 35922 ft | 503 kts | 33° |
| 2026-05-05 17:03 | 42.94535 | 5.58663 | 35914 ft | 503 kts | 33° |
| 2026-05-05 17:04 | 43.00137 | 5.64262 | 35907 ft | 503 kts | 33° |
| 2026-05-05 17:04 | 43.05781 | 5.69913 | 35911 ft | 503 kts | 33° |
| 2026-05-05 17:05 | 43.11420 | 5.75580 | 35917 ft | 503 kts | 34° |
| 2026-05-05 17:05 | 43.17053 | 5.81267 | 35935 ft | 503 kts | 34° |
| 2026-05-05 17:06 | 43.22684 | 5.86950 | 35935 ft | 503 kts | 33° |
| 2026-05-05 17:06 | 43.28309 | 5.92628 | 35944 ft | 502 kts | 34° |
| 2026-05-05 17:07 | 43.33890 | 5.98285 | 35946 ft | 501 kts | 33° |
| 2026-05-05 17:07 | 43.39949 | 6.02809 | 35921 ft | 491 kts | 14° |
| 2026-05-05 17:08 | 43.46514 | 6.04763 | 35912 ft | 477 kts | 357° |
| 2026-05-05 17:08 | 43.53126 | 6.05414 | 35928 ft | 476 kts | 357° |
| 2026-05-05 17:09 | 43.59730 | 6.06088 | 35918 ft | 476 kts | 357° |
| 2026-05-05 17:09 | 43.66294 | 6.06755 | 35911 ft | 476 kts | 357° |
| 2026-05-05 17:10 | 43.72900 | 6.07423 | 35926 ft | 476 kts | 358° |
| 2026-05-05 17:10 | 43.79427 | 6.09487 | 35896 ft | 489 kts | 17° |
| 2026-05-05 17:11 | 43.85606 | 6.13583 | 35902 ft | 493 kts | 22° |
| 2026-05-05 17:11 | 43.91721 | 6.17768 | 35920 ft | 493 kts | 22° |
| 2026-05-05 17:12 | 43.97872 | 6.21976 | 35918 ft | 493 kts | 22° |
| 2026-05-05 17:12 | 44.04029 | 6.26189 | 35919 ft | 493 kts | 22° |
| 2026-05-05 17:13 | 44.10186 | 6.30417 | 35935 ft | 493 kts | 22° |
| 2026-05-05 17:13 | 44.16325 | 6.34644 | 35931 ft | 493 kts | 22° |
| 2026-05-05 17:14 | 44.22430 | 6.38858 | 35925 ft | 493 kts | 22° |
| 2026-05-05 17:14 | 44.28565 | 6.43101 | 35941 ft | 493 kts | 22° |
| 2026-05-05 17:15 | 44.34696 | 6.47346 | 35893 ft | 492 kts | 22° |
| 2026-05-05 17:15 | 44.40826 | 6.51609 | 35907 ft | 491 kts | 22° |
| 2026-05-05 17:16 | 44.46946 | 6.55868 | 35930 ft | 491 kts | 23° |
| 2026-05-05 17:16 | 44.53020 | 6.60099 | 35923 ft | 491 kts | 23° |
| 2026-05-05 17:17 | 44.59126 | 6.64357 | 35922 ft | 490 kts | 23° |
| 2026-05-05 17:17 | 44.65220 | 6.68631 | 35923 ft | 490 kts | 23° |
| 2026-05-05 17:18 | 44.71318 | 6.72912 | 35923 ft | 489 kts | 23° |
| 2026-05-05 17:18 | 44.77485 | 6.76916 | 35916 ft | 485 kts | 13° |
| 2026-05-05 17:19 | 44.84005 | 6.78645 | 35927 ft | 471 kts | 355° |
| 2026-05-05 17:19 | 44.90496 | 6.78347 | 35923 ft | 466 kts | 351° |
| 2026-05-05 17:20 | 44.96923 | 6.77929 | 35918 ft | 465 kts | 351° |
| 2026-05-05 17:20 | 45.03391 | 6.77517 | 35928 ft | 465 kts | 351° |
| 2026-05-05 17:21 | 45.09863 | 6.77091 | 35922 ft | 464 kts | 351° |
| 2026-05-05 17:22 | 45.19554 | 6.76439 | 35926 ft | 465 kts | 351° |
| 2026-05-05 17:22 | 45.26013 | 6.76007 | 35924 ft | 465 kts | 351° |
| 2026-05-05 17:23 | 45.32472 | 6.75577 | 35918 ft | 465 kts | 351° |
| 2026-05-05 17:23 | 45.38889 | 6.75147 | 35925 ft | 465 kts | 351° |
| 2026-05-05 17:24 | 45.45351 | 6.74710 | 35912 ft | 463 kts | 351° |
| 2026-05-05 17:24 | 45.51789 | 6.74262 | 35915 ft | 464 kts | 351° |
| 2026-05-05 17:25 | 45.58245 | 6.73816 | 35928 ft | 464 kts | 352° |
| 2026-05-05 17:25 | 45.64684 | 6.73376 | 35905 ft | 464 kts | 352° |
| 2026-05-05 17:26 | 45.71102 | 6.72932 | 35901 ft | 463 kts | 352° |
| 2026-05-05 17:26 | 45.77556 | 6.72582 | 35926 ft | 467 kts | 358° |
| 2026-05-05 17:27 | 45.83947 | 6.74308 | 35929 ft | 476 kts | 17° |
| 2026-05-05 17:27 | 45.90018 | 6.78159 | 35922 ft | 478 kts | 22° |
| 2026-05-05 17:28 | 45.96066 | 6.82117 | 35917 ft | 477 kts | 22° |
| 2026-05-05 17:28 | 46.02107 | 6.86065 | 35929 ft | 477 kts | 22° |
| 2026-05-05 17:29 | 46.08137 | 6.90021 | 35927 ft | 476 kts | 22° |
| 2026-05-05 17:29 | 46.14158 | 6.93993 | 35923 ft | 475 kts | 22° |
| 2026-05-05 17:30 | 46.20166 | 6.97958 | 35929 ft | 474 kts | 22° |
| 2026-05-05 17:30 | 46.26161 | 7.01929 | 35931 ft | 474 kts | 22° |
| 2026-05-05 17:31 | 46.32103 | 7.05871 | 35497 ft | 472 kts | 22° |
| 2026-05-05 17:31 | 46.35081 | 7.07849 | 34926 ft | 470 kts | 22° |
| 2026-05-05 17:31 | 46.38055 | 7.09826 | 34459 ft | 467 kts | 22° |
| 2026-05-05 17:31 | 46.41016 | 7.11795 | 34001 ft | 463 kts | 22° |
| 2026-05-05 17:32 | 46.43896 | 7.13713 | 33445 ft | 460 kts | 22° |
| 2026-05-05 17:32 | 46.46791 | 7.15646 | 32948 ft | 456 kts | 22° |
| 2026-05-05 17:32 | 46.49654 | 7.17560 | 32487 ft | 451 kts | 22° |
| 2026-05-05 17:32 | 46.52492 | 7.19463 | 32030 ft | 447 kts | 22° |
| 2026-05-05 17:33 | 46.55305 | 7.21354 | 31595 ft | 443 kts | 24° |
| 2026-05-05 17:33 | 46.57987 | 7.23543 | 31179 ft | 441 kts | 33° |
| 2026-05-05 17:33 | 46.60415 | 7.26211 | 30761 ft | 437 kts | 40° |
| 2026-05-05 17:33 | 46.62707 | 7.29100 | 30334 ft | 434 kts | 40° |
| 2026-05-05 17:34 | 46.64982 | 7.31964 | 29891 ft | 430 kts | 40° |
| 2026-05-05 17:34 | 46.67206 | 7.34765 | 29388 ft | 427 kts | 40° |
| 2026-05-05 17:34 | 46.69441 | 7.37581 | 28902 ft | 423 kts | 40° |
| 2026-05-05 17:34 | 46.71658 | 7.40380 | 28469 ft | 420 kts | 40° |
| 2026-05-05 17:35 | 46.73854 | 7.43159 | 28030 ft | 416 kts | 40° |
| 2026-05-05 17:35 | 46.76029 | 7.45911 | 27609 ft | 412 kts | 40° |
| 2026-05-05 17:35 | 46.78147 | 7.48692 | 27162 ft | 408 kts | 45° |
| 2026-05-05 17:35 | 46.79999 | 7.51804 | 26736 ft | 405 kts | 52° |
| 2026-05-05 17:36 | 46.81740 | 7.55016 | 26286 ft | 402 kts | 52° |
| 2026-05-05 17:36 | 46.83470 | 7.58193 | 25857 ft | 399 kts | 52° |
| 2026-05-05 17:36 | 46.85191 | 7.61342 | 25441 ft | 395 kts | 52° |
| 2026-05-05 17:36 | 46.86900 | 7.64469 | 25035 ft | 393 kts | 52° |
| 2026-05-05 17:37 | 46.88594 | 7.67577 | 24589 ft | 389 kts | 52° |
| 2026-05-05 17:37 | 46.89713 | 7.69630 | 24318 ft | 387 kts | 52° |
| 2026-05-05 17:37 | 46.91922 | 7.73690 | 23779 ft | 384 kts | 52° |
| 2026-05-05 17:37 | 46.93573 | 7.76734 | 23388 ft | 380 kts | 53° |
| 2026-05-05 17:38 | 46.95206 | 7.79750 | 22919 ft | 377 kts | 53° |
| 2026-05-05 17:38 | 46.96828 | 7.82750 | 22454 ft | 374 kts | 53° |
| 2026-05-05 17:38 | 46.98436 | 7.85730 | 22016 ft | 372 kts | 53° |
| 2026-05-05 17:38 | 47.00037 | 7.88702 | 21570 ft | 370 kts | 53° |
| 2026-05-05 17:39 | 47.01616 | 7.91640 | 21154 ft | 367 kts | 52° |
| 2026-05-05 17:39 | 47.03193 | 7.94577 | 20731 ft | 365 kts | 52° |
| 2026-05-05 17:39 | 47.04760 | 7.97496 | 20340 ft | 363 kts | 52° |
| 2026-05-05 17:39 | 47.06315 | 8.00396 | 19957 ft | 361 kts | 52° |
| 2026-05-05 17:40 | 47.07988 | 8.03064 | 19569 ft | 359 kts | 43° |
| 2026-05-05 17:40 | 47.09793 | 8.05577 | 19198 ft | 357 kts | 43° |
| 2026-05-05 17:40 | 47.11610 | 8.08121 | 18804 ft | 355 kts | 44° |
| 2026-05-05 17:40 | 47.13389 | 8.10618 | 18439 ft | 353 kts | 44° |
| 2026-05-05 17:41 | 47.15138 | 8.13073 | 18069 ft | 351 kts | 44° |
| 2026-05-05 17:41 | 47.16900 | 8.15548 | 17648 ft | 350 kts | 44° |
| 2026-05-05 17:41 | 47.18649 | 8.18012 | 17252 ft | 348 kts | 44° |
| 2026-05-05 17:41 | 47.20519 | 8.20233 | 16865 ft | 345 kts | 29° |
| 2026-05-05 17:42 | 47.22706 | 8.21579 | 16490 ft | 339 kts | 11° |
| 2026-05-05 17:42 | 47.25012 | 8.21934 | 16112 ft | 331 kts | 353° |
| 2026-05-05 17:42 | 47.27242 | 8.21340 | 15728 ft | 324 kts | 336° |
| 2026-05-05 17:42 | 47.29269 | 8.19981 | 15357 ft | 318 kts | 328° |
| 2026-05-05 17:43 | 47.31238 | 8.18508 | 14968 ft | 317 kts | 328° |
| 2026-05-05 17:43 | 47.33206 | 8.17041 | 14599 ft | 316 kts | 328° |
| 2026-05-05 17:43 | 47.35169 | 8.15579 | 14259 ft | 315 kts | 328° |
| 2026-05-05 17:43 | 47.37115 | 8.14132 | 13941 ft | 313 kts | 328° |
| 2026-05-05 17:44 | 47.39053 | 8.12690 | 13601 ft | 311 kts | 328° |
| 2026-05-05 17:44 | 47.40979 | 8.11252 | 13246 ft | 309 kts | 328° |
| 2026-05-05 17:44 | 47.42889 | 8.09822 | 12884 ft | 307 kts | 327° |
| 2026-05-05 17:44 | 47.44786 | 8.08401 | 12477 ft | 304 kts | 328° |
| 2026-05-05 17:45 | 47.46670 | 8.06993 | 11999 ft | 303 kts | 328° |
| 2026-05-05 17:45 | 47.48657 | 8.05908 | 11557 ft | 308 kts | 343° |
| 2026-05-05 17:45 | 47.50791 | 8.05723 | 11325 ft | 306 kts | 1° |
| 2026-05-05 17:45 | 47.52833 | 8.06420 | 11205 ft | 299 kts | 19° |
| 2026-05-05 17:46 | 47.54622 | 8.07822 | 10848 ft | 297 kts | 30° |
| 2026-05-05 17:46 | 47.56434 | 8.09469 | 10051 ft | 312 kts | 30° |
| 2026-05-05 17:46 | 47.57684 | 8.10619 | 9693 ft | 314 kts | 30° |
| 2026-05-05 17:46 | 47.60136 | 8.12890 | 9085 ft | 313 kts | 30° |
| 2026-05-05 17:47 | 47.61938 | 8.14680 | 8689 ft | 312 kts | 39° |
| 2026-05-05 17:47 | 47.63458 | 8.16941 | 8335 ft | 309 kts | 46° |
| 2026-05-05 17:47 | 47.64918 | 8.19255 | 7864 ft | 305 kts | 46° |
| 2026-05-05 17:47 | 47.66354 | 8.21568 | 7303 ft | 303 kts | 51° |
| 2026-05-05 17:48 | 47.67231 | 8.24325 | 6794 ft | 295 kts | 84° |
| 2026-05-05 17:48 | 47.67007 | 8.27253 | 6294 ft | 282 kts | 118° |
| 2026-05-05 17:48 | 47.65851 | 8.29481 | 5731 ft | 269 kts | 142° |
| 2026-05-05 17:48 | 47.64486 | 8.31310 | 5177 ft | 266 kts | 142° |
| 2026-05-05 17:49 | 47.63134 | 8.33126 | 4745 ft | 259 kts | 141° |
| 2026-05-05 17:49 | 47.61854 | 8.34887 | 4454 ft | 242 kts | 141° |
| 2026-05-05 17:49 | 47.60646 | 8.36553 | 4256 ft | 233 kts | 141° |
| 2026-05-05 17:49 | 47.59475 | 8.38163 | 4078 ft | 226 kts | 141° |
| 2026-05-05 17:50 | 47.58349 | 8.39711 | 3987 ft | 216 kts | 142° |
| 2026-05-05 17:50 | 47.57258 | 8.41210 | 3838 ft | 213 kts | 142° |
| 2026-05-05 17:50 | 47.56179 | 8.42690 | 3586 ft | 210 kts | 141° |
| 2026-05-05 17:50 | 47.55109 | 8.44157 | 3324 ft | 209 kts | 141° |
| 2026-05-05 17:51 | 47.54093 | 8.45551 | 3066 ft | 193 kts | 140° |
| 2026-05-05 17:51 | 47.53166 | 8.46824 | 2827 ft | 169 kts | 141° |
| 2026-05-05 17:51 | 47.52351 | 8.47943 | 2591 ft | 152 kts | 141° |
| 2026-05-05 17:51 | 47.51602 | 8.48967 | 2390 ft | 142 kts | 140° |
| 2026-05-05 17:52 | 47.50890 | 8.49940 | 2169 ft | 136 kts | 140° |
| 2026-05-05 17:52 | 47.50207 | 8.50870 | 1990 ft | 134 kts | 141° |
| 2026-05-05 17:52 | 47.49481 | 8.51867 | 1844 ft | 145 kts | 138° |
| 2026-05-05 17:52 | 47.48740 | 8.52888 | 1626 ft | 146 kts | 140° |
| 2026-05-05 17:53 | 47.47988 | 8.53913 | 1414 ft | 144 kts | 138° |
| 2026-05-05 17:53 | 47.47331 | 8.54804 | 1390 ft | 110 kts | 137° |
| 2026-05-05 17:53 | 47.46847 | 8.55466 | 1395 ft | 69 kts | 137° |
| 2026-05-05 17:53 | 47.46606 | 8.55792 | 1396 ft | 30 kts | 139° |
| 2026-05-05 17:54 | 47.46450 | 8.55928 | 1403 ft | 23 kts | 158° |
| 2026-05-05 17:54 | 47.46326 | 8.55975 | 1402 ft | 13 kts | 167° |
| 2026-05-05 17:54 | 47.46256 | 8.55997 | 1407 ft | 8 kts | 168° |
| 2026-05-05 17:54 | 47.46214 | 8.56014 | 1410 ft | 11 kts | 158° |
| 2026-05-05 17:55 | 47.46099 | 8.56145 | 1408 ft | 18 kts | 137° |
| 2026-05-05 17:55 | 47.46010 | 8.56265 | 1410 ft | 17 kts | 138° |
| 2026-05-05 17:55 | 47.45920 | 8.56310 | 1413 ft | 13 kts | 190° |
| 2026-05-05 17:55 | 47.45830 | 8.56296 | 1415 ft | 14 kts | 184° |
| 2026-05-05 17:56 | 47.45718 | 8.56279 | 1414 ft | 19 kts | 186° |
| 2026-05-05 17:56 | 47.45573 | 8.56256 | 1411 ft | 22 kts | 186° |
| 2026-05-05 17:56 | 47.45477 | 8.56191 | 1410 ft | 16 kts | 262° |
| 2026-05-05 17:56 | 47.45490 | 8.56018 | 1410 ft | 18 kts | 275° |
| 2026-05-05 17:57 | 47.45502 | 8.55849 | 1411 ft | 15 kts | 276° |
| 2026-05-05 17:57 | 47.45505 | 8.55774 | 1413 ft | 7 kts | 262° |
| 2026-05-05 17:57 | 47.45445 | 8.55750 | 1414 ft | 5 kts | 185° |
| 2026-05-05 17:57 | 47.45436 | 8.55748 | 1414 ft | 1 kts | 186° |
| 2026-05-05 17:58 | 47.45433 | 8.55748 | 1414 ft | 0 kts | 186° |
| 2026-05-05 17:58 | 47.45432 | 8.55748 | 1414 ft | 0 kts | 186° |
| 2026-05-05 17:58 | 47.45430 | 8.55747 | 1411 ft | 0 kts | 186° |